Saint Charles, Minnesota
Current Conditions -  °F | °C
As of 2:13 PM on Thursday 30 Oct 2014 (Local Time) from KONA Reporting Station
Overcast Overcast  
Wind Chill: 46°   Ceiling: 6000
Heat Index: 46°   Visibility: 10mi
Dew Point: 37°   Wind: 3mph
Humidity: 71%   Direction: 40°NE
Pressure: 30.07"   Gusts: NA
Location:  43.97°N, 92.06°W
Report Text: KONA 301913Z AUTO 04003KT 10SM SCT041 OVC060 08/03 A3007 RMK AO2
Loading
Personal Weather Stations






























Interactive Weather Map
Tropical Storm Tracking
New forecast layout! Learn more

10-Day Weather Forecast

Advertisements
Track Severe Weather on mobile